sensor_id;sensor_type;location;lat;lon;timestamp;P1;durP1;ratioP1;P2;durP2;ratioP2
6203;SDS011;3135;42.602;23.468;2022-07-30T00:02:06;3.33;;;2.90;;
6203;SDS011;3135;42.602;23.468;2022-07-30T00:04:32;4.30;;;2.97;;
6203;SDS011;3135;42.602;23.468;2022-07-30T00:06:58;3.30;;;3.00;;
6203;SDS011;3135;42.602;23.468;2022-07-30T00:09:24;2.70;;;2.50;;
6203;SDS011;3135;42.602;23.468;2022-07-30T00:11:49;3.20;;;2.90;;
6203;SDS011;3135;42.602;23.468;2022-07-30T00:14:15;3.50;;;3.03;;
6203;SDS011;3135;42.602;23.468;2022-07-30T00:16:40;3.30;;;3.00;;
6203;SDS011;3135;42.602;23.468;2022-07-30T00:19:06;4.63;;;3.00;;
6203;SDS011;3135;42.602;23.468;2022-07-30T00:21:31;3.20;;;2.97;;
6203;SDS011;3135;42.602;23.468;2022-07-30T00:23:57;3.15;;;2.88;;
6203;SDS011;3135;42.602;23.468;2022-07-30T00:26:22;3.20;;;2.90;;
6203;SDS011;3135;42.602;23.468;2022-07-30T00:28:47;2.73;;;2.53;;
6203;SDS011;3135;42.602;23.468;2022-07-30T00:31:13;3.15;;;2.85;;
6203;SDS011;3135;42.602;23.468;2022-07-30T00:33:38;3.40;;;3.20;;
6203;SDS011;3135;42.602;23.468;2022-07-30T00:36:04;4.87;;;3.20;;
6203;SDS011;3135;42.602;23.468;2022-07-30T00:38:29;3.30;;;2.90;;
6203;SDS011;3135;42.602;23.468;2022-07-30T00:40:55;3.58;;;3.08;;
6203;SDS011;3135;42.602;23.468;2022-07-30T00:43:22;3.40;;;3.10;;
6203;SDS011;3135;42.602;23.468;2022-07-30T00:45:48;8.40;;;3.30;;
6203;SDS011;3135;42.602;23.468;2022-07-30T00:48:13;3.53;;;3.22;;
6203;SDS011;3135;42.602;23.468;2022-07-30T00:50:39;3.40;;;3.10;;
6203;SDS011;3135;42.602;23.468;2022-07-30T00:53:05;3.75;;;3.45;;
6203;SDS011;3135;42.602;23.468;2022-07-30T00:55:32;4.85;;;2.95;;
6203;SDS011;3135;42.602;23.468;2022-07-30T00:57:58;3.42;;;3.10;;
6203;SDS011;3135;42.602;23.468;2022-07-30T01:00:24;4.20;;;3.10;;
6203;SDS011;3135;42.602;23.468;2022-07-30T01:02:50;3.67;;;3.37;;
6203;SDS011;3135;42.602;23.468;2022-07-30T01:05:15;3.63;;;3.13;;
6203;SDS011;3135;42.602;23.468;2022-07-30T01:07:41;4.23;;;3.40;;
6203;SDS011;3135;42.602;23.468;2022-07-30T01:10:07;3.75;;;3.08;;
6203;SDS011;3135;42.602;23.468;2022-07-30T01:12:35;5.30;;;3.30;;
6203;SDS011;3135;42.602;23.468;2022-07-30T01:15:02;5.18;;;3.35;;
6203;SDS011;3135;42.602;23.468;2022-07-30T01:17:29;3.75;;;3.45;;
6203;SDS011;3135;42.602;23.468;2022-07-30T01:19:55;3.83;;;3.50;;
6203;SDS011;3135;42.602;23.468;2022-07-30T01:27:39;3.28;;;3.08;;
6203;SDS011;3135;42.602;23.468;2022-07-30T01:30:08;3.60;;;3.27;;
6203;SDS011;3135;42.602;23.468;2022-07-30T01:32:35;3.60;;;3.30;;
6203;SDS011;3135;42.602;23.468;2022-07-30T01:35:04;3.92;;;3.55;;
6203;SDS011;3135;42.602;23.468;2022-07-30T01:37:31;3.75;;;3.38;;
6203;SDS011;3135;42.602;23.468;2022-07-30T01:39:58;3.67;;;3.38;;
6203;SDS011;3135;42.602;23.468;2022-07-30T01:42:24;4.03;;;3.30;;
6203;SDS011;3135;42.602;23.468;2022-07-30T01:44:52;5.03;;;3.65;;
6203;SDS011;3135;42.602;23.468;2022-07-30T01:47:19;3.75;;;3.35;;
6203;SDS011;3135;42.602;23.468;2022-07-30T01:49:47;4.00;;;3.50;;
6203;SDS011;3135;42.602;23.468;2022-07-30T01:52:16;3.40;;;3.20;;
6203;SDS011;3135;42.602;23.468;2022-07-30T01:54:47;3.63;;;3.33;;
6203;SDS011;3135;42.602;23.468;2022-07-30T01:57:15;3.45;;;3.15;;
6203;SDS011;3135;42.602;23.468;2022-07-30T01:59:43;3.70;;;3.40;;
6203;SDS011;3135;42.602;23.468;2022-07-30T02:02:12;5.32;;;3.33;;
6203;SDS011;3135;42.602;23.468;2022-07-30T02:04:37;4.63;;;3.80;;
6203;SDS011;3135;42.602;23.468;2022-07-30T02:07:03;3.83;;;3.43;;
6203;SDS011;3135;42.602;23.468;2022-07-30T02:09:40;3.60;;;3.30;;
6203;SDS011;3135;42.602;23.468;2022-07-30T02:12:09;3.60;;;3.30;;
6203;SDS011;3135;42.602;23.468;2022-07-30T02:20:36;3.50;;;3.20;;
6203;SDS011;3135;42.602;23.468;2022-07-30T02:23:04;5.50;;;3.53;;
6203;SDS011;3135;42.602;23.468;2022-07-30T02:25:34;3.47;;;3.25;;
6203;SDS011;3135;42.602;23.468;2022-07-30T02:28:07;5.70;;;3.40;;
6203;SDS011;3135;42.602;23.468;2022-07-30T02:30:37;3.63;;;3.30;;
6203;SDS011;3135;42.602;23.468;2022-07-30T02:33:08;3.83;;;3.50;;
6203;SDS011;3135;42.602;23.468;2022-07-30T02:35:37;3.75;;;3.45;;
6203;SDS011;3135;42.602;23.468;2022-07-30T02:38:04;3.65;;;3.15;;
6203;SDS011;3135;42.602;23.468;2022-07-30T02:40:31;3.50;;;3.20;;
6203;SDS011;3135;42.602;23.468;2022-07-30T02:42:57;4.47;;;3.30;;
6203;SDS011;3135;42.602;23.468;2022-07-30T02:45:24;3.80;;;3.22;;
6203;SDS011;3135;42.602;23.468;2022-07-30T02:47:52;4.68;;;3.60;;
6203;SDS011;3135;42.602;23.468;2022-07-30T02:50:21;3.67;;;3.37;;
6203;SDS011;3135;42.602;23.468;2022-07-30T02:52:49;4.45;;;3.45;;
6203;SDS011;3135;42.602;23.468;2022-07-30T02:55:18;3.13;;;2.83;;
6203;SDS011;3135;42.602;23.468;2022-07-30T02:57:45;3.40;;;3.10;;
6203;SDS011;3135;42.602;23.468;2022-07-30T03:00:12;4.17;;;3.23;;
6203;SDS011;3135;42.602;23.468;2022-07-30T03:02:38;3.47;;;3.17;;
6203;SDS011;3135;42.602;23.468;2022-07-30T03:05:06;3.93;;;3.37;;
6203;SDS011;3135;42.602;23.468;2022-07-30T03:07:32;4.23;;;3.50;;
6203;SDS011;3135;42.602;23.468;2022-07-30T03:10:00;3.50;;;3.20;;
6203;SDS011;3135;42.602;23.468;2022-07-30T03:12:30;3.70;;;3.33;;
6203;SDS011;3135;42.602;23.468;2022-07-30T03:14:58;4.88;;;3.67;;
6203;SDS011;3135;42.602;23.468;2022-07-30T03:17:24;4.25;;;3.45;;
6203;SDS011;3135;42.602;23.468;2022-07-30T03:19:52;5.70;;;3.60;;
6203;SDS011;3135;42.602;23.468;2022-07-30T03:22:20;5.70;;;3.47;;
6203;SDS011;3135;42.602;23.468;2022-07-30T03:24:49;3.70;;;3.40;;
6203;SDS011;3135;42.602;23.468;2022-07-30T03:27:18;3.63;;;3.33;;
6203;SDS011;3135;42.602;23.468;2022-07-30T03:29:45;4.28;;;3.40;;
6203;SDS011;3135;42.602;23.468;2022-07-30T03:32:12;3.47;;;3.17;;
6203;SDS011;3135;42.602;23.468;2022-07-30T03:34:38;3.40;;;3.20;;
6203;SDS011;3135;42.602;23.468;2022-07-30T03:37:05;3.30;;;3.10;;
6203;SDS011;3135;42.602;23.468;2022-07-30T03:39:32;3.65;;;3.38;;
6203;SDS011;3135;42.602;23.468;2022-07-30T03:41:59;3.83;;;3.53;;
6203;SDS011;3135;42.602;23.468;2022-07-30T03:44:25;3.90;;;3.60;;
6203;SDS011;3135;42.602;23.468;2022-07-30T03:46:54;3.65;;;3.35;;
6203;SDS011;3135;42.602;23.468;2022-07-30T03:49:21;4.15;;;3.47;;
6203;SDS011;3135;42.602;23.468;2022-07-30T03:51:47;5.00;;;3.50;;
6203;SDS011;3135;42.602;23.468;2022-07-30T03:54:14;3.88;;;3.35;;
6203;SDS011;3135;42.602;23.468;2022-07-30T03:56:40;4.85;;;3.42;;
6203;SDS011;3135;42.602;23.468;2022-07-30T03:59:06;4.43;;;3.50;;
6203;SDS011;3135;42.602;23.468;2022-07-30T04:01:32;3.60;;;3.30;;
6203;SDS011;3135;42.602;23.468;2022-07-30T04:04:04;4.38;;;3.83;;
6203;SDS011;3135;42.602;23.468;2022-07-30T04:06:34;6.88;;;3.35;;
6203;SDS011;3135;42.602;23.468;2022-07-30T04:09:07;5.57;;;3.58;;
6203;SDS011;3135;42.602;23.468;2022-07-30T04:11:37;3.70;;;3.40;;
6203;SDS011;3135;42.602;23.468;2022-07-30T04:14:03;4.95;;;3.58;;
6203;SDS011;3135;42.602;23.468;2022-07-30T04:19:23;3.70;;;3.35;;
6203;SDS011;3135;42.602;23.468;2022-07-30T04:21:52;4.03;;;3.50;;
6203;SDS011;3135;42.602;23.468;2022-07-30T04:24:19;3.83;;;3.20;;
6203;SDS011;3135;42.602;23.468;2022-07-30T04:26:46;4.40;;;3.55;;
6203;SDS011;3135;42.602;23.468;2022-07-30T04:29:13;4.28;;;3.28;;
6203;SDS011;3135;42.602;23.468;2022-07-30T04:31:40;6.38;;;3.20;;
6203;SDS011;3135;42.602;23.468;2022-07-30T04:34:06;6.10;;;3.50;;
6203;SDS011;3135;42.602;23.468;2022-07-30T04:36:32;4.73;;;3.03;;
6203;SDS011;3135;42.602;23.468;2022-07-30T04:38:58;3.60;;;3.30;;
6203;SDS011;3135;42.602;23.468;2022-07-30T04:41:24;3.60;;;3.23;;
6203;SDS011;3135;42.602;23.468;2022-07-30T04:43:50;5.80;;;3.33;;
6203;SDS011;3135;42.602;23.468;2022-07-30T04:46:16;4.35;;;3.67;;
6203;SDS011;3135;42.602;23.468;2022-07-30T04:48:42;3.40;;;3.10;;
6203;SDS011;3135;42.602;23.468;2022-07-30T04:51:08;3.80;;;3.40;;
6203;SDS011;3135;42.602;23.468;2022-07-30T04:53:38;3.45;;;3.15;;
6203;SDS011;3135;42.602;23.468;2022-07-30T04:56:06;3.30;;;3.10;;
6203;SDS011;3135;42.602;23.468;2022-07-30T04:58:32;4.30;;;3.53;;
6203;SDS011;3135;42.602;23.468;2022-07-30T05:00:59;4.10;;;3.42;;
6203;SDS011;3135;42.602;23.468;2022-07-30T05:03:26;3.23;;;2.93;;
6203;SDS011;3135;42.602;23.468;2022-07-30T05:05:54;5.00;;;3.40;;
6203;SDS011;3135;42.602;23.468;2022-07-30T05:08:20;5.90;;;3.40;;
6203;SDS011;3135;42.602;23.468;2022-07-30T05:10:48;3.90;;;3.45;;
6203;SDS011;3135;42.602;23.468;2022-07-30T05:13:13;3.90;;;3.60;;
6203;SDS011;3135;42.602;23.468;2022-07-30T05:15:40;4.70;;;3.50;;
6203;SDS011;3135;42.602;23.468;2022-07-30T05:18:08;4.00;;;3.60;;
6203;SDS011;3135;42.602;23.468;2022-07-30T05:20:34;3.97;;;3.53;;
6203;SDS011;3135;42.602;23.468;2022-07-30T05:23:00;3.40;;;3.20;;
6203;SDS011;3135;42.602;23.468;2022-07-30T05:25:26;4.00;;;3.50;;
6203;SDS011;3135;42.602;23.468;2022-07-30T05:27:51;5.37;;;3.60;;
6203;SDS011;3135;42.602;23.468;2022-07-30T05:30:17;3.90;;;3.30;;
6203;SDS011;3135;42.602;23.468;2022-07-30T05:32:42;3.95;;;3.65;;
6203;SDS011;3135;42.602;23.468;2022-07-30T05:35:08;3.88;;;3.42;;
6203;SDS011;3135;42.602;23.468;2022-07-30T05:37:33;5.33;;;4.07;;
6203;SDS011;3135;42.602;23.468;2022-07-30T05:39:59;4.70;;;3.50;;
6203;SDS011;3135;42.602;23.468;2022-07-30T05:42:24;3.97;;;3.58;;
6203;SDS011;3135;42.602;23.468;2022-07-30T05:44:50;4.10;;;3.80;;
6203;SDS011;3135;42.602;23.468;2022-07-30T05:47:15;4.60;;;3.50;;
6203;SDS011;3135;42.602;23.468;2022-07-30T05:49:44;3.50;;;3.20;;
6203;SDS011;3135;42.602;23.468;2022-07-30T05:52:10;4.77;;;3.50;;
6203;SDS011;3135;42.602;23.468;2022-07-30T05:54:35;3.87;;;3.57;;
6203;SDS011;3135;42.602;23.468;2022-07-30T05:57:01;3.80;;;3.50;;
6203;SDS011;3135;42.602;23.468;2022-07-30T05:59:26;3.87;;;3.50;;
6203;SDS011;3135;42.602;23.468;2022-07-30T06:01:52;3.45;;;3.20;;
6203;SDS011;3135;42.602;23.468;2022-07-30T06:04:17;3.77;;;3.47;;
6203;SDS011;3135;42.602;23.468;2022-07-30T06:06:43;4.13;;;3.73;;
6203;SDS011;3135;42.602;23.468;2022-07-30T06:09:08;4.50;;;3.50;;
6203;SDS011;3135;42.602;23.468;2022-07-30T06:11:33;4.27;;;3.87;;
6203;SDS011;3135;42.602;23.468;2022-07-30T06:13:59;3.97;;;3.50;;
6203;SDS011;3135;42.602;23.468;2022-07-30T06:16:25;6.43;;;3.85;;
6203;SDS011;3135;42.602;23.468;2022-07-30T06:18:50;4.80;;;3.60;;
6203;SDS011;3135;42.602;23.468;2022-07-30T06:21:15;3.80;;;3.50;;
6203;SDS011;3135;42.602;23.468;2022-07-30T06:23:41;4.03;;;3.60;;
6203;SDS011;3135;42.602;23.468;2022-07-30T06:26:06;3.87;;;3.37;;
6203;SDS011;3135;42.602;23.468;2022-07-30T06:28:32;4.00;;;3.60;;
6203;SDS011;3135;42.602;23.468;2022-07-30T06:30:57;3.80;;;3.50;;
6203;SDS011;3135;42.602;23.468;2022-07-30T06:33:23;3.90;;;3.60;;
6203;SDS011;3135;42.602;23.468;2022-07-30T06:35:49;4.03;;;3.72;;
6203;SDS011;3135;42.602;23.468;2022-07-30T06:38:14;7.20;;;4.43;;
6203;SDS011;3135;42.602;23.468;2022-07-30T06:40:40;4.27;;;3.87;;
6203;SDS011;3135;42.602;23.468;2022-07-30T06:43:05;4.37;;;4.00;;
6203;SDS011;3135;42.602;23.468;2022-07-30T06:45:30;3.57;;;3.30;;
6203;SDS011;3135;42.602;23.468;2022-07-30T06:47:57;5.17;;;3.90;;
6203;SDS011;3135;42.602;23.468;2022-07-30T06:50:23;3.80;;;3.50;;
6203;SDS011;3135;42.602;23.468;2022-07-30T06:52:49;5.10;;;3.90;;
6203;SDS011;3135;42.602;23.468;2022-07-30T06:55:15;4.50;;;3.70;;
6203;SDS011;3135;42.602;23.468;2022-07-30T06:57:40;3.90;;;3.60;;
6203;SDS011;3135;42.602;23.468;2022-07-30T07:00:06;4.65;;;4.20;;
6203;SDS011;3135;42.602;23.468;2022-07-30T07:02:32;4.20;;;3.30;;
6203;SDS011;3135;42.602;23.468;2022-07-30T07:04:58;3.50;;;3.20;;
6203;SDS011;3135;42.602;23.468;2022-07-30T07:07:23;4.07;;;3.67;;
6203;SDS011;3135;42.602;23.468;2022-07-30T07:09:49;4.10;;;3.80;;
6203;SDS011;3135;42.602;23.468;2022-07-30T07:12:14;3.80;;;3.50;;
6203;SDS011;3135;42.602;23.468;2022-07-30T07:14:40;3.93;;;3.63;;
6203;SDS011;3135;42.602;23.468;2022-07-30T07:17:05;4.00;;;3.67;;
6203;SDS011;3135;42.602;23.468;2022-07-30T07:19:31;4.00;;;3.60;;
6203;SDS011;3135;42.602;23.468;2022-07-30T07:21:56;3.90;;;3.60;;
6203;SDS011;3135;42.602;23.468;2022-07-30T07:24:22;3.90;;;3.60;;
6203;SDS011;3135;42.602;23.468;2022-07-30T07:26:48;3.80;;;3.50;;
6203;SDS011;3135;42.602;23.468;2022-07-30T07:29:15;3.70;;;3.43;;
6203;SDS011;3135;42.602;23.468;2022-07-30T07:31:40;3.97;;;3.67;;
6203;SDS011;3135;42.602;23.468;2022-07-30T07:34:06;3.83;;;3.47;;
6203;SDS011;3135;42.602;23.468;2022-07-30T07:36:31;3.63;;;3.43;;
6203;SDS011;3135;42.602;23.468;2022-07-30T07:38:58;3.90;;;3.55;;
6203;SDS011;3135;42.602;23.468;2022-07-30T07:41:24;3.85;;;3.40;;
6203;SDS011;3135;42.602;23.468;2022-07-30T07:43:50;3.60;;;3.30;;
6203;SDS011;3135;42.602;23.468;2022-07-30T07:46:15;3.90;;;3.50;;
6203;SDS011;3135;42.602;23.468;2022-07-30T07:48:44;3.60;;;3.30;;
6203;SDS011;3135;42.602;23.468;2022-07-30T07:51:10;3.88;;;3.58;;
6203;SDS011;3135;42.602;23.468;2022-07-30T07:53:35;4.37;;;3.50;;
6203;SDS011;3135;42.602;23.468;2022-07-30T07:56:01;6.67;;;3.63;;
6203;SDS011;3135;42.602;23.468;2022-07-30T07:58:26;3.92;;;3.55;;
6203;SDS011;3135;42.602;23.468;2022-07-30T08:00:52;3.40;;;3.20;;
6203;SDS011;3135;42.602;23.468;2022-07-30T08:03:17;3.72;;;3.42;;
6203;SDS011;3135;42.602;23.468;2022-07-30T08:05:43;3.72;;;3.50;;
6203;SDS011;3135;42.602;23.468;2022-07-30T08:08:08;3.87;;;3.57;;
6203;SDS011;3135;42.602;23.468;2022-07-30T08:10:34;3.80;;;3.50;;
6203;SDS011;3135;42.602;23.468;2022-07-30T08:12:59;3.50;;;3.20;;
6203;SDS011;3135;42.602;23.468;2022-07-30T08:15:27;3.25;;;3.05;;
6203;SDS011;3135;42.602;23.468;2022-07-30T08:17:52;3.80;;;3.60;;
6203;SDS011;3135;42.602;23.468;2022-07-30T08:20:18;4.90;;;3.83;;
6203;SDS011;3135;42.602;23.468;2022-07-30T08:22:44;5.07;;;3.60;;
6203;SDS011;3135;42.602;23.468;2022-07-30T08:25:09;3.80;;;3.50;;
6203;SDS011;3135;42.602;23.468;2022-07-30T08:27:35;4.00;;;3.70;;
6203;SDS011;3135;42.602;23.468;2022-07-30T08:30:04;3.93;;;3.20;;
6203;SDS011;3135;42.602;23.468;2022-07-30T08:32:30;3.65;;;3.38;;
6203;SDS011;3135;42.602;23.468;2022-07-30T08:34:56;5.10;;;3.67;;
6203;SDS011;3135;42.602;23.468;2022-07-30T08:37:21;4.00;;;3.70;;
6203;SDS011;3135;42.602;23.468;2022-07-30T08:39:46;3.77;;;3.47;;
6203;SDS011;3135;42.602;23.468;2022-07-30T08:42:12;4.03;;;3.70;;
6203;SDS011;3135;42.602;23.468;2022-07-30T08:44:38;4.05;;;3.78;;
6203;SDS011;3135;42.602;23.468;2022-07-30T08:47:05;3.77;;;3.47;;
6203;SDS011;3135;42.602;23.468;2022-07-30T08:49:34;4.15;;;3.85;;
6203;SDS011;3135;42.602;23.468;2022-07-30T08:52:01;4.60;;;3.92;;
6203;SDS011;3135;42.602;23.468;2022-07-30T08:54:26;3.60;;;3.40;;
6203;SDS011;3135;42.602;23.468;2022-07-30T08:56:52;4.15;;;3.85;;
6203;SDS011;3135;42.602;23.468;2022-07-30T08:59:18;4.10;;;3.80;;
6203;SDS011;3135;42.602;23.468;2022-07-30T09:01:47;4.70;;;4.30;;
6203;SDS011;3135;42.602;23.468;2022-07-30T09:04:13;4.00;;;3.70;;
6203;SDS011;3135;42.602;23.468;2022-07-30T09:06:39;4.33;;;3.77;;
6203;SDS011;3135;42.602;23.468;2022-07-30T09:09:05;4.10;;;3.70;;
6203;SDS011;3135;42.602;23.468;2022-07-30T09:11:32;4.07;;;3.80;;
6203;SDS011;3135;42.602;23.468;2022-07-30T09:14:10;4.50;;;3.75;;
6203;SDS011;3135;42.602;23.468;2022-07-30T09:16:37;3.93;;;3.53;;
6203;SDS011;3135;42.602;23.468;2022-07-30T09:19:11;3.80;;;3.50;;
6203;SDS011;3135;42.602;23.468;2022-07-30T09:21:41;3.97;;;3.60;;
6203;SDS011;3135;42.602;23.468;2022-07-30T09:24:08;3.55;;;3.25;;
6203;SDS011;3135;42.602;23.468;2022-07-30T09:29:36;4.03;;;3.70;;
6203;SDS011;3135;42.602;23.468;2022-07-30T09:32:06;4.00;;;3.60;;
6203;SDS011;3135;42.602;23.468;2022-07-30T09:34:34;3.38;;;3.17;;
6203;SDS011;3135;42.602;23.468;2022-07-30T09:37:15;4.00;;;3.70;;
6203;SDS011;3135;42.602;23.468;2022-07-30T09:39:42;3.67;;;3.35;;
6203;SDS011;3135;42.602;23.468;2022-07-30T09:44:44;4.20;;;3.67;;
6203;SDS011;3135;42.602;23.468;2022-07-30T09:47:28;3.58;;;3.28;;
6203;SDS011;3135;42.602;23.468;2022-07-30T09:50:16;4.15;;;3.75;;
6203;SDS011;3135;42.602;23.468;2022-07-30T09:52:44;4.40;;;4.10;;
6203;SDS011;3135;42.602;23.468;2022-07-30T09:55:11;4.43;;;3.70;;
6203;SDS011;3135;42.602;23.468;2022-07-30T10:00:39;3.90;;;3.60;;
6203;SDS011;3135;42.602;23.468;2022-07-30T10:08:20;4.28;;;3.97;;
6203;SDS011;3135;42.602;23.468;2022-07-30T10:11:03;4.57;;;3.92;;
6203;SDS011;3135;42.602;23.468;2022-07-30T10:13:29;4.72;;;3.53;;
6203;SDS011;3135;42.602;23.468;2022-07-30T10:15:56;4.00;;;3.70;;
6203;SDS011;3135;42.602;23.468;2022-07-30T10:18:22;4.37;;;3.97;;
6203;SDS011;3135;42.602;23.468;2022-07-30T10:20:47;4.27;;;3.83;;
6203;SDS011;3135;42.602;23.468;2022-07-30T10:23:13;4.63;;;4.20;;
6203;SDS011;3135;42.602;23.468;2022-07-30T10:25:39;4.07;;;3.78;;
6203;SDS011;3135;42.602;23.468;2022-07-30T10:28:05;4.22;;;3.80;;
6203;SDS011;3135;42.602;23.468;2022-07-30T10:30:31;4.90;;;3.90;;
6203;SDS011;3135;42.602;23.468;2022-07-30T10:32:57;4.20;;;3.90;;
6203;SDS011;3135;42.602;23.468;2022-07-30T10:35:24;5.55;;;4.22;;
6203;SDS011;3135;42.602;23.468;2022-07-30T10:37:50;5.47;;;4.20;;
6203;SDS011;3135;42.602;23.468;2022-07-30T10:48:23;5.97;;;5.00;;
6203;SDS011;3135;42.602;23.468;2022-07-30T10:56:11;6.35;;;5.30;;
6203;SDS011;3135;42.602;23.468;2022-07-30T10:59:03;5.90;;;5.15;;
6203;SDS011;3135;42.602;23.468;2022-07-30T11:06:43;5.97;;;5.20;;
6203;SDS011;3135;42.602;23.468;2022-07-30T11:12:04;5.88;;;5.32;;
6203;SDS011;3135;42.602;23.468;2022-07-30T11:17:15;6.10;;;5.60;;
6203;SDS011;3135;42.602;23.468;2022-07-30T11:22:38;5.78;;;5.28;;
6203;SDS011;3135;42.602;23.468;2022-07-30T11:25:09;6.07;;;5.47;;
6203;SDS011;3135;42.602;23.468;2022-07-30T11:27:55;6.13;;;5.63;;
6203;SDS011;3135;42.602;23.468;2022-07-30T11:35:17;5.75;;;5.25;;
6203;SDS011;3135;42.602;23.468;2022-07-30T11:40:29;5.80;;;5.30;;
6203;SDS011;3135;42.602;23.468;2022-07-30T11:45:40;6.53;;;5.50;;
6203;SDS011;3135;42.602;23.468;2022-07-30T11:48:10;6.53;;;5.93;;
6203;SDS011;3135;42.602;23.468;2022-07-30T11:50:38;6.07;;;5.57;;
6203;SDS011;3135;42.602;23.468;2022-07-30T11:53:05;6.07;;;5.50;;
6203;SDS011;3135;42.602;23.468;2022-07-30T11:55:34;7.38;;;5.60;;
6203;SDS011;3135;42.602;23.468;2022-07-30T11:58:05;6.00;;;5.50;;
6203;SDS011;3135;42.602;23.468;2022-07-30T12:00:37;6.00;;;5.50;;
6203;SDS011;3135;42.602;23.468;2022-07-30T12:03:08;5.97;;;5.47;;
6203;SDS011;3135;42.602;23.468;2022-07-30T12:05:38;6.20;;;5.70;;
6203;SDS011;3135;42.602;23.468;2022-07-30T12:08:04;5.85;;;5.35;;
6203;SDS011;3135;42.602;23.468;2022-07-30T12:10:30;7.13;;;5.90;;
6203;SDS011;3135;42.602;23.468;2022-07-30T12:15:41;5.65;;;5.15;;
6203;SDS011;3135;42.602;23.468;2022-07-30T12:18:09;5.75;;;5.25;;
6203;SDS011;3135;42.602;23.468;2022-07-30T12:20:41;5.93;;;5.10;;
6203;SDS011;3135;42.602;23.468;2022-07-30T12:23:10;5.57;;;5.13;;
6203;SDS011;3135;42.602;23.468;2022-07-30T12:25:38;5.53;;;4.82;;
6203;SDS011;3135;42.602;23.468;2022-07-30T12:28:04;5.53;;;5.10;;
6203;SDS011;3135;42.602;23.468;2022-07-30T12:30:29;5.37;;;4.87;;
6203;SDS011;3135;42.602;23.468;2022-07-30T12:32:55;7.60;;;5.18;;
6203;SDS011;3135;42.602;23.468;2022-07-30T12:35:20;5.13;;;4.67;;
6203;SDS011;3135;42.602;23.468;2022-07-30T12:38:00;7.70;;;5.10;;
6203;SDS011;3135;42.602;23.468;2022-07-30T12:40:27;5.60;;;5.10;;
6203;SDS011;3135;42.602;23.468;2022-07-30T12:42:52;6.30;;;5.07;;
6203;SDS011;3135;42.602;23.468;2022-07-30T12:45:28;5.13;;;4.70;;
6203;SDS011;3135;42.602;23.468;2022-07-30T12:47:55;5.23;;;4.83;;
6203;SDS011;3135;42.602;23.468;2022-07-30T12:50:21;4.78;;;4.47;;
6203;SDS011;3135;42.602;23.468;2022-07-30T12:52:47;6.07;;;4.83;;
6203;SDS011;3135;42.602;23.468;2022-07-30T12:55:16;5.20;;;4.70;;
6203;SDS011;3135;42.602;23.468;2022-07-30T12:57:53;5.05;;;4.55;;
6203;SDS011;3135;42.602;23.468;2022-07-30T13:00:46;4.75;;;4.35;;
6203;SDS011;3135;42.602;23.468;2022-07-30T13:03:23;4.70;;;4.30;;
6203;SDS011;3135;42.602;23.468;2022-07-30T13:05:51;4.65;;;4.25;;
6203;SDS011;3135;42.602;23.468;2022-07-30T13:08:18;4.57;;;4.28;;
6203;SDS011;3135;42.602;23.468;2022-07-30T13:10:53;4.40;;;4.00;;
6203;SDS011;3135;42.602;23.468;2022-07-30T13:13:20;4.68;;;4.10;;
6203;SDS011;3135;42.602;23.468;2022-07-30T13:15:56;6.73;;;4.10;;
6203;SDS011;3135;42.602;23.468;2022-07-30T13:18:23;4.20;;;3.80;;
6203;SDS011;3135;42.602;23.468;2022-07-30T13:20:49;4.47;;;4.07;;
6203;SDS011;3135;42.602;23.468;2022-07-30T13:23:14;4.43;;;4.03;;
6203;SDS011;3135;42.602;23.468;2022-07-30T13:25:40;4.20;;;4.00;;
6203;SDS011;3135;42.602;23.468;2022-07-30T13:28:05;4.72;;;4.32;;
6203;SDS011;3135;42.602;23.468;2022-07-30T13:30:31;4.20;;;3.90;;
6203;SDS011;3135;42.602;23.468;2022-07-30T13:32:56;4.70;;;4.30;;
6203;SDS011;3135;42.602;23.468;2022-07-30T13:35:22;4.57;;;4.22;;
6203;SDS011;3135;42.602;23.468;2022-07-30T13:37:47;4.50;;;4.20;;
6203;SDS011;3135;42.602;23.468;2022-07-30T13:40:12;4.13;;;3.73;;
6203;SDS011;3135;42.602;23.468;2022-07-30T13:42:38;4.85;;;4.20;;
6203;SDS011;3135;42.602;23.468;2022-07-30T13:45:03;4.33;;;3.93;;
6203;SDS011;3135;42.602;23.468;2022-07-30T13:47:29;4.22;;;4.00;;
6203;SDS011;3135;42.602;23.468;2022-07-30T13:49:54;4.10;;;3.80;;
6203;SDS011;3135;42.602;23.468;2022-07-30T13:52:20;4.37;;;3.97;;
6203;SDS011;3135;42.602;23.468;2022-07-30T13:54:45;3.63;;;3.42;;
6203;SDS011;3135;42.602;23.468;2022-07-30T13:57:11;4.30;;;4.00;;
6203;SDS011;3135;42.602;23.468;2022-07-30T13:59:36;3.90;;;3.60;;
6203;SDS011;3135;42.602;23.468;2022-07-30T14:02:02;4.47;;;4.00;;
6203;SDS011;3135;42.602;23.468;2022-07-30T14:04:27;4.43;;;4.03;;
6203;SDS011;3135;42.602;23.468;2022-07-30T14:06:53;4.10;;;3.80;;
6203;SDS011;3135;42.602;23.468;2022-07-30T14:09:19;4.63;;;4.22;;
6203;SDS011;3135;42.602;23.468;2022-07-30T14:11:44;4.97;;;3.93;;
6203;SDS011;3135;42.602;23.468;2022-07-30T14:14:10;4.93;;;3.83;;
6203;SDS011;3135;42.602;23.468;2022-07-30T14:16:35;4.07;;;3.87;;
6203;SDS011;3135;42.602;23.468;2022-07-30T14:19:01;4.80;;;4.50;;
6203;SDS011;3135;42.602;23.468;2022-07-30T14:21:26;4.45;;;4.05;;
6203;SDS011;3135;42.602;23.468;2022-07-30T14:23:51;4.40;;;4.10;;
6203;SDS011;3135;42.602;23.468;2022-07-30T14:26:17;4.53;;;4.03;;
6203;SDS011;3135;42.602;23.468;2022-07-30T14:28:42;5.03;;;4.60;;
6203;SDS011;3135;42.602;23.468;2022-07-30T14:31:11;5.93;;;4.37;;
6203;SDS011;3135;42.602;23.468;2022-07-30T14:33:36;4.40;;;4.00;;
6203;SDS011;3135;42.602;23.468;2022-07-30T14:36:02;4.53;;;4.23;;
6203;SDS011;3135;42.602;23.468;2022-07-30T14:38:27;4.88;;;4.30;;
6203;SDS011;3135;42.602;23.468;2022-07-30T14:40:53;4.07;;;3.77;;
6203;SDS011;3135;42.602;23.468;2022-07-30T14:43:18;4.30;;;4.00;;
6203;SDS011;3135;42.602;23.468;2022-07-30T14:45:43;4.80;;;4.40;;
6203;SDS011;3135;42.602;23.468;2022-07-30T14:48:09;4.50;;;4.20;;
6203;SDS011;3135;42.602;23.468;2022-07-30T14:50:34;4.20;;;3.90;;
6203;SDS011;3135;42.602;23.468;2022-07-30T14:53:00;4.40;;;4.00;;
6203;SDS011;3135;42.602;23.468;2022-07-30T14:55:25;6.90;;;4.37;;
6203;SDS011;3135;42.602;23.468;2022-07-30T14:57:51;4.50;;;4.10;;
6203;SDS011;3135;42.602;23.468;2022-07-30T15:00:16;4.70;;;4.40;;
6203;SDS011;3135;42.602;23.468;2022-07-30T15:02:42;4.63;;;4.30;;
6203;SDS011;3135;42.602;23.468;2022-07-30T15:05:07;4.75;;;4.35;;
6203;SDS011;3135;42.602;23.468;2022-07-30T15:07:33;4.83;;;4.37;;
6203;SDS011;3135;42.602;23.468;2022-07-30T15:09:58;5.53;;;4.03;;
6203;SDS011;3135;42.602;23.468;2022-07-30T15:12:24;4.23;;;3.93;;
6203;SDS011;3135;42.602;23.468;2022-07-30T15:14:49;4.40;;;4.00;;
6203;SDS011;3135;42.602;23.468;2022-07-30T15:17:15;4.20;;;3.90;;
6203;SDS011;3135;42.602;23.468;2022-07-30T15:19:40;4.30;;;4.00;;
6203;SDS011;3135;42.602;23.468;2022-07-30T15:22:06;6.20;;;4.20;;
6203;SDS011;3135;42.602;23.468;2022-07-30T15:24:31;4.97;;;4.47;;
6203;SDS011;3135;42.602;23.468;2022-07-30T15:26:57;5.45;;;4.22;;
6203;SDS011;3135;42.602;23.468;2022-07-30T15:29:23;4.35;;;4.00;;
6203;SDS011;3135;42.602;23.468;2022-07-30T15:31:51;4.78;;;4.00;;
6203;SDS011;3135;42.602;23.468;2022-07-30T15:34:16;4.67;;;4.30;;
6203;SDS011;3135;42.602;23.468;2022-07-30T15:36:42;5.47;;;4.20;;
6203;SDS011;3135;42.602;23.468;2022-07-30T15:39:07;6.17;;;4.27;;
6203;SDS011;3135;42.602;23.468;2022-07-30T15:41:33;7.60;;;5.97;;
6203;SDS011;3135;42.602;23.468;2022-07-30T15:43:58;5.60;;;5.10;;
6203;SDS011;3135;42.602;23.468;2022-07-30T15:46:24;5.18;;;4.68;;
6203;SDS011;3135;42.602;23.468;2022-07-30T15:48:49;5.97;;;5.27;;
6203;SDS011;3135;42.602;23.468;2022-07-30T15:51:15;5.50;;;4.63;;
6203;SDS011;3135;42.602;23.468;2022-07-30T15:53:41;5.00;;;4.47;;
6203;SDS011;3135;42.602;23.468;2022-07-30T15:56:06;5.47;;;4.33;;
6203;SDS011;3135;42.602;23.468;2022-07-30T15:58:32;4.50;;;4.10;;
6203;SDS011;3135;42.602;23.468;2022-07-30T16:00:57;4.00;;;3.70;;
6203;SDS011;3135;42.602;23.468;2022-07-30T16:03:23;3.90;;;3.60;;
6203;SDS011;3135;42.602;23.468;2022-07-30T16:05:48;4.23;;;3.93;;
6203;SDS011;3135;42.602;23.468;2022-07-30T16:08:14;4.60;;;3.97;;